Huvudsida
METAR-TAF:

METAR-TAF

Flygplatser :

Norman Manley International Airport

Kingston, Jamaica

latitud: 17-56N, longitud: 076-47W, höjd: 3 m

Aktuellt väderrapport

Denna rapport gjordes för 49 minuter sedan, klockan 09:00 UTC
Vind 3 kt från väst/nordväst
Temperatur 28°C
Fuktighet 70%
Tryck 1012 hPa
Sikt 10 km eller mer
Få moln på en höjd av 2200 ft

METAR: MKJP 250900Z 30003KT 9999 FEW022 28/22 Q1012

Tid: 04:49 (09:49 UTC)

Väderprognos

Denna rapport gjordes för 4 timmar och 34 minuter sedan, klockan 05:15 UTC
Prognos gäller från 25 kl. 06 UTC till 26 kl. 06 UTC
Vind 5 kt från sydost
Sikt 10 km eller mer
Få moln på en höjd av 2200 ft
Blir
från 25 kl. 12 UTC till 25 kl. 14 UTC
Vind 20 kt från sydost
Få moln på en höjd av 2200 ft, Cumulonimbus.
Blir
från 26 kl. 02 UTC till 26 kl. 04 UTC
Vind 10 kt från sydost

TAF: MKJP 250515Z 2506/2606 13005KT 9999 FEW022 BECMG 2512/2514 14020KT FEW022CB BECMG 2602/2604 13010KT

Aktuella väderrapporter och prognoser från 4000 flygplatser (METAR- och TAF-rapporter).

De tillgängliga stationerna syns som gula och röda prickar på kartan.

För musen över prickarna för att se namnen på stationerna.

Klicka sedan för att få väderrapporter och prognoser.

För att ändra kartan: Klicka på de gröna knapparna med ett svart kors på för att zooma in; den gröna knappen med ett streck på för att zooma ut; eller på de gröna pilarna för angränsande kartor.


METAR-TAF: